createdAt,value
2022-08-20T00:01:02.024Z,11.30
2022-08-20T00:03:33.226Z,10.20
2022-08-20T00:06:10.658Z,11.43
2022-08-20T00:08:37.997Z,11.97
2022-08-20T00:11:06.536Z,11.93
2022-08-20T00:13:37.496Z,12.13
2022-08-20T00:16:05.200Z,11.20
2022-08-20T00:18:31.613Z,11.77
2022-08-20T00:20:58.427Z,12.30
2022-08-20T00:23:25.600Z,11.43
2022-08-20T00:25:53.072Z,12.37
2022-08-20T00:28:19.605Z,11.50
2022-08-20T00:30:46.909Z,12.47
2022-08-20T00:33:20.569Z,11.87
2022-08-20T00:35:48.447Z,11.23
2022-08-20T00:38:15.051Z,11.20
2022-08-20T00:40:52.418Z,12.93
2022-08-20T00:43:24.485Z,12.10
2022-08-20T00:45:50.985Z,12.17
2022-08-20T00:48:17.442Z,12.27
2022-08-20T00:50:43.735Z,12.17
2022-08-20T00:53:10.135Z,12.73
2022-08-20T00:55:36.745Z,13.07
2022-08-20T00:58:09.453Z,13.43
2022-08-20T01:00:41.735Z,12.37
2022-08-20T01:03:11.239Z,12.90
2022-08-20T01:05:40.012Z,11.93
2022-08-20T01:08:07.010Z,12.40
2022-08-20T01:10:34.873Z,11.97
2022-08-20T01:13:03.400Z,12.63
2022-08-20T01:15:31.638Z,12.07
2022-08-20T01:17:58.945Z,11.63
2022-08-20T01:20:28.616Z,12.60
2022-08-20T01:23:30.378Z,13.37
2022-08-20T01:26:04.194Z,11.63
2022-08-20T01:28:57.049Z,12.17
2022-08-20T01:31:24.606Z,11.40
2022-08-20T01:33:53.372Z,11.07
2022-08-20T01:36:31.313Z,11.83
2022-08-20T01:38:59.673Z,10.77
2022-08-20T01:41:33.237Z,11.23
2022-08-20T01:43:59.905Z,10.93
2022-08-20T01:46:30.121Z,11.07
2022-08-20T01:48:57.072Z,11.07
2022-08-20T01:51:29.259Z,11.17
2022-08-20T01:53:59.622Z,10.87
2022-08-20T01:56:30.804Z,9.53
2022-08-20T01:58:59.612Z,8.63
2022-08-20T02:01:52.417Z,9.30
2022-08-20T02:04:19.677Z,10.20
2022-08-20T02:06:57.024Z,9.47
2022-08-20T02:09:27.834Z,9.07
2022-08-20T02:11:54.947Z,9.57
2022-08-20T02:14:21.328Z,9.50
2022-08-20T02:16:55.281Z,8.53
2022-08-20T02:19:57.397Z,9.13
2022-08-20T02:22:26.987Z,8.07
2022-08-20T02:24:54.010Z,7.57
2022-08-20T02:27:23.328Z,8.27
2022-08-20T02:29:50.162Z,9.20
2022-08-20T02:32:32.047Z,10.93
2022-08-20T02:35:03.536Z,10.00
2022-08-20T02:37:30.105Z,9.67
2022-08-20T02:39:56.536Z,10.83
2022-08-20T02:42:23.023Z,10.67
2022-08-20T02:44:49.469Z,10.97
2022-08-20T02:47:17.045Z,10.17
2022-08-20T02:49:43.346Z,10.10
2022-08-20T02:52:09.692Z,11.07
2022-08-20T02:54:36.157Z,11.97
2022-08-20T02:57:04.056Z,12.07
2022-08-20T02:59:30.440Z,11.83
2022-08-20T03:01:59.738Z,10.37
2022-08-20T03:04:28.189Z,9.80
2022-08-20T03:06:54.605Z,10.17
2022-08-20T03:09:20.970Z,8.80
2022-08-20T03:11:47.324Z,10.00
2022-08-20T03:14:13.824Z,10.10
2022-08-20T03:16:40.114Z,11.93
2022-08-20T03:19:06.543Z,11.17
2022-08-20T03:21:32.877Z,11.47
2022-08-20T03:23:59.309Z,9.93
2022-08-20T03:26:25.694Z,8.33
2022-08-20T03:28:52.155Z,8.20
2022-08-20T03:31:18.915Z,7.30
2022-08-20T03:33:52.737Z,9.23
2022-08-20T03:36:22.116Z,7.37
2022-08-20T03:38:55.360Z,10.20
2022-08-20T03:41:21.824Z,10.77
2022-08-20T03:43:48.121Z,11.30
2022-08-20T03:46:23.203Z,10.63
2022-08-20T03:48:56.472Z,11.67
2022-08-20T03:51:27.105Z,11.77
2022-08-20T03:53:53.387Z,11.53
2022-08-20T03:56:19.688Z,11.60
2022-08-20T03:58:46.333Z,10.93
2022-08-20T04:01:44.613Z,11.83
2022-08-20T04:03:59.257Z,11.30
2022-08-20T04:06:26.497Z,11.57
2022-08-20T04:08:53.711Z,10.97
2022-08-20T04:11:20.052Z,12.43
2022-08-20T04:13:46.414Z,11.37
2022-08-20T04:16:15.630Z,11.33
2022-08-20T04:18:43.391Z,12.07
2022-08-20T04:21:30.960Z,11.90
2022-08-20T04:24:00.988Z,12.77
2022-08-20T04:26:27.320Z,12.93
2022-08-20T04:28:55.872Z,12.03
2022-08-20T04:31:25.416Z,12.10
2022-08-20T04:33:51.889Z,11.50
2022-08-20T04:36:18.225Z,12.07
2022-08-20T04:38:49.783Z,10.37
2022-08-20T04:41:23.685Z,11.90
2022-08-20T04:43:53.805Z,11.33
2022-08-20T04:46:23.429Z,11.80
2022-08-20T04:48:50.552Z,11.83
2022-08-20T04:51:17.425Z,11.60
2022-08-20T04:53:45.190Z,12.70
2022-08-20T04:56:23.078Z,11.83
2022-08-20T04:58:49.869Z,12.47
2022-08-20T05:01:16.937Z,12.00
2022-08-20T05:03:43.886Z,11.33
2022-08-20T05:06:12.113Z,12.57
2022-08-20T05:08:40.087Z,12.20
2022-08-20T05:11:33.430Z,12.83
2022-08-20T05:13:55.649Z,12.60
2022-08-20T05:16:22.298Z,12.60
2022-08-20T05:18:52.573Z,11.23
2022-08-20T05:21:20.395Z,12.40
2022-08-20T05:23:47.125Z,11.03
2022-08-20T05:26:15.651Z,11.80
2022-08-20T05:28:57.085Z,12.57
2022-08-20T05:31:31.376Z,13.33
2022-08-20T05:33:59.430Z,13.03
2022-08-20T05:36:25.727Z,13.17
2022-08-20T05:38:53.764Z,12.50
2022-08-20T05:41:29.456Z,12.20
2022-08-20T05:44:00.952Z,13.73
2022-08-20T05:46:28.404Z,12.30
2022-08-20T05:48:54.816Z,10.87
2022-08-20T05:51:25.649Z,10.03
2022-08-20T05:53:54.563Z,9.80
2022-08-20T05:56:26.618Z,9.70
2022-08-20T05:58:53.499Z,12.40
2022-08-20T06:01:19.929Z,11.93
2022-08-20T06:04:04.871Z,12.60
2022-08-20T06:06:45.911Z,11.70
2022-08-20T06:09:16.175Z,11.20
2022-08-20T06:11:42.696Z,12.03
2022-08-20T06:14:09.196Z,11.43
2022-08-20T06:16:37.167Z,11.87
2022-08-20T06:19:04.113Z,11.90
2022-08-20T06:21:30.464Z,11.57
2022-08-20T06:24:00.810Z,11.97
2022-08-20T06:26:29.889Z,11.90
2022-08-20T06:28:57.127Z,10.67
2022-08-20T06:31:23.614Z,12.43
2022-08-20T06:33:49.965Z,12.17
2022-08-20T06:36:18.747Z,11.23
2022-08-20T06:38:46.114Z,12.63
2022-08-20T06:41:12.541Z,11.10
2022-08-20T06:43:38.826Z,11.07
2022-08-20T06:46:06.756Z,11.53
2022-08-20T06:48:33.121Z,11.40
2022-08-20T06:50:59.518Z,10.23
2022-08-20T06:53:25.984Z,9.77
2022-08-20T06:55:54.821Z,11.23
2022-08-20T06:58:37.321Z,10.97
2022-08-20T07:01:09.778Z,10.17
2022-08-20T07:03:38.575Z,11.23
2022-08-20T07:06:05.729Z,10.37
2022-08-20T07:08:32.580Z,11.50
2022-08-20T07:10:59.523Z,10.97
2022-08-20T07:13:25.900Z,11.07
2022-08-20T07:15:54.093Z,11.20
2022-08-20T07:18:28.888Z,10.70
2022-08-20T07:20:56.532Z,10.70
2022-08-20T07:23:23.564Z,10.67
2022-08-20T07:25:50.049Z,10.30
2022-08-20T07:28:22.254Z,8.57
2022-08-20T07:31:13.272Z,8.80
2022-08-20T07:33:41.584Z,7.53
2022-08-20T07:36:09.564Z,7.03
2022-08-20T07:38:36.551Z,6.50
2022-08-20T07:41:06.109Z,8.00
2022-08-20T07:43:32.507Z,7.67
2022-08-20T07:46:03.243Z,6.10
2022-08-20T07:48:31.898Z,6.27
2022-08-20T07:51:01.821Z,5.30
2022-08-20T07:53:30.242Z,7.03
2022-08-20T07:56:00.488Z,6.90
2022-08-20T07:58:27.643Z,7.37
2022-08-20T08:00:59.721Z,7.70
2022-08-20T08:03:39.898Z,6.67
2022-08-20T08:06:14.351Z,6.60
2022-08-20T08:08:41.503Z,6.07
2022-08-20T08:11:08.496Z,4.80
2022-08-20T08:13:37.901Z,3.60
2022-08-20T08:16:08.115Z,3.87
2022-08-20T08:18:38.095Z,6.53
2022-08-20T08:21:05.389Z,5.90
2022-08-20T08:23:32.427Z,5.17
2022-08-20T08:25:59.229Z,5.07
2022-08-20T08:28:29.583Z,5.67
2022-08-20T08:30:56.216Z,5.57
2022-08-20T08:33:27.565Z,5.17
2022-08-20T08:36:03.221Z,5.00
2022-08-20T08:38:31.557Z,7.77
2022-08-20T08:41:03.278Z,6.20
2022-08-20T08:43:31.807Z,5.63
2022-08-20T08:46:03.510Z,4.70
2022-08-20T08:48:37.126Z,5.37
2022-08-20T08:51:12.397Z,5.70
2022-08-20T08:53:47.132Z,5.30
2022-08-20T08:56:15.047Z,4.30
2022-08-20T08:58:42.943Z,4.47
2022-08-20T09:01:53.076Z,3.43
2022-08-20T09:03:59.257Z,3.30
2022-08-20T09:06:26.375Z,3.17
2022-08-20T09:08:54.237Z,2.43
2022-08-20T09:11:22.697Z,2.93
2022-08-20T09:13:49.638Z,3.43
2022-08-20T09:16:16.319Z,3.87
2022-08-20T09:18:43.011Z,4.37
2022-08-20T09:21:09.661Z,4.00
2022-08-20T09:23:35.996Z,3.60
2022-08-20T09:26:02.421Z,3.67
2022-08-20T09:28:34.886Z,3.47
2022-08-20T09:31:03.137Z,3.67
2022-08-20T09:33:31.149Z,14.47
2022-08-20T09:35:57.605Z,15.93
2022-08-20T09:38:23.925Z,14.30
2022-08-20T09:40:50.448Z,14.57
2022-08-20T09:43:16.942Z,13.77
2022-08-20T09:45:43.327Z,14.87
2022-08-20T09:48:10.513Z,16.00
2022-08-20T09:50:37.429Z,18.33
2022-08-20T09:53:06.158Z,18.37
2022-08-20T09:55:34.521Z,17.17
2022-08-20T09:58:09.363Z,17.03
2022-08-20T10:00:35.701Z,18.87
2022-08-20T10:03:03.261Z,19.53
2022-08-20T10:05:29.728Z,20.17
2022-08-20T10:07:56.491Z,22.00
2022-08-20T10:10:23.048Z,21.67
2022-08-20T10:12:52.874Z,23.97
2022-08-20T10:15:21.181Z,24.50
2022-08-20T10:17:47.549Z,22.17
2022-08-20T10:20:14.681Z,20.70
2022-08-20T10:22:41.245Z,19.87
2022-08-20T10:25:08.433Z,20.77
2022-08-20T10:27:36.211Z,20.37
2022-08-20T10:30:04.191Z,19.80
2022-08-20T10:32:30.772Z,17.30
2022-08-20T10:34:57.153Z,15.87
2022-08-20T10:37:25.634Z,16.17
2022-08-20T10:39:53.023Z,15.90
2022-08-20T10:42:19.678Z,16.60
2022-08-20T10:44:46.788Z,17.87
2022-08-20T10:47:20.153Z,17.50
2022-08-20T10:49:47.781Z,19.53
2022-08-20T10:52:14.190Z,17.43
2022-08-20T10:54:43.326Z,20.50
2022-08-20T10:57:14.526Z,19.43
2022-08-20T10:59:42.621Z,16.17
2022-08-20T11:02:09.417Z,16.17
2022-08-20T11:04:36.414Z,14.57
2022-08-20T11:07:15.058Z,14.77
2022-08-20T11:09:43.017Z,15.07
2022-08-20T11:12:10.254Z,12.57
2022-08-20T11:14:36.590Z,12.80
2022-08-20T11:17:03.539Z,12.07
2022-08-20T11:19:30.172Z,11.70
2022-08-20T11:21:56.591Z,12.30
2022-08-20T11:24:23.175Z,16.90
2022-08-20T11:26:50.221Z,16.27
2022-08-20T11:29:17.226Z,16.33
2022-08-20T11:31:43.568Z,16.60
2022-08-20T11:34:12.724Z,15.63
2022-08-20T11:36:39.513Z,13.80
2022-08-20T11:39:05.846Z,10.43
2022-08-20T11:41:32.151Z,9.50
2022-08-20T11:44:20.335Z,8.33
2022-08-20T11:46:44.777Z,9.47
2022-08-20T11:49:11.172Z,9.67
2022-08-20T11:51:49.112Z,10.00
2022-08-20T11:54:16.344Z,10.60
2022-08-20T11:56:42.971Z,13.57
2022-08-20T11:59:13.191Z,12.83
2022-08-20T12:01:39.478Z,12.03
2022-08-20T12:04:06.189Z,10.50
2022-08-20T12:06:33.579Z,9.93
2022-08-20T12:09:00.089Z,10.97
2022-08-20T12:11:27.298Z,10.40
2022-08-20T12:13:53.710Z,10.50
2022-08-20T12:16:20.305Z,11.43
2022-08-20T12:18:47.166Z,10.53
2022-08-20T12:21:13.628Z,11.67
2022-08-20T12:23:40.135Z,9.77
2022-08-20T12:26:07.128Z,10.23
2022-08-20T12:28:33.720Z,10.13
2022-08-20T12:31:00.158Z,9.87
2022-08-20T12:33:26.548Z,8.80
2022-08-20T12:35:52.977Z,9.13
2022-08-20T12:38:19.522Z,6.60
2022-08-20T12:40:46.389Z,6.70
2022-08-20T12:43:12.795Z,5.40
2022-08-20T12:45:39.134Z,4.17
2022-08-20T12:48:09.073Z,4.57
2022-08-20T12:50:37.914Z,3.93
2022-08-20T12:53:04.597Z,4.43
2022-08-20T12:55:31.449Z,4.63
2022-08-20T12:58:00.148Z,3.60
2022-08-20T13:00:28.632Z,3.70
2022-08-20T13:02:57.112Z,3.17
2022-08-20T13:05:24.193Z,3.80
2022-08-20T13:07:50.857Z,3.57
2022-08-20T13:10:19.468Z,3.30
2022-08-20T13:12:45.913Z,2.90
2022-08-20T13:15:12.986Z,2.30
2022-08-20T13:17:39.677Z,2.27
2022-08-20T13:20:11.033Z,3.43
2022-08-20T13:22:37.592Z,3.00
2022-08-20T13:25:06.199Z,3.08
2022-08-20T13:27:32.660Z,2.90
2022-08-20T13:29:59.340Z,2.57
2022-08-20T13:32:25.976Z,2.97
2022-08-20T13:34:52.434Z,2.97
2022-08-20T13:37:25.623Z,2.55
2022-08-20T13:39:52.946Z,2.83
2022-08-20T13:42:19.309Z,2.83
2022-08-20T13:44:45.722Z,3.08
2022-08-20T13:47:21.583Z,2.88
2022-08-20T13:49:54.133Z,2.85
2022-08-20T13:52:20.692Z,3.13
2022-08-20T13:54:47.909Z,3.50
2022-08-20T13:57:16.898Z,3.27
2022-08-20T13:59:45.762Z,3.20
2022-08-20T14:02:13.586Z,3.00
2022-08-20T14:04:40.412Z,3.43
2022-08-20T14:07:18.819Z,2.87
2022-08-20T14:09:46.813Z,2.50
2022-08-20T14:12:14.342Z,3.40
2022-08-20T14:14:41.560Z,3.23
2022-08-20T14:17:16.998Z,3.10
2022-08-20T14:19:45.219Z,2.67
2022-08-20T14:22:11.748Z,3.10
2022-08-20T14:24:38.125Z,3.20
2022-08-20T14:27:05.547Z,3.30
2022-08-20T14:29:36.652Z,3.37
2022-08-20T14:32:03.693Z,3.00
2022-08-20T14:34:30.201Z,3.40
2022-08-20T14:36:56.757Z,2.57
2022-08-20T14:39:24.232Z,3.67
2022-08-20T14:41:50.621Z,3.53
2022-08-20T14:44:17.043Z,3.03
2022-08-20T14:46:43.536Z,2.90
2022-08-20T14:49:09.900Z,3.50
2022-08-20T14:51:37.441Z,2.57
2022-08-20T14:54:06.920Z,2.83
2022-08-20T14:56:33.311Z,2.70
2022-08-20T14:58:59.591Z,3.00
2022-08-20T15:01:26.049Z,2.30
2022-08-20T15:03:52.511Z,3.07
2022-08-20T15:06:21.789Z,3.00
2022-08-20T15:08:48.942Z,2.80
2022-08-20T15:11:15.428Z,2.70
2022-08-20T15:13:42.119Z,2.53
2022-08-20T15:16:08.512Z,2.90
2022-08-20T15:18:35.216Z,3.27
2022-08-20T15:21:01.634Z,2.83
2022-08-20T15:23:28.264Z,2.73
2022-08-20T15:25:55.003Z,3.20
2022-08-20T15:28:21.370Z,2.73
2022-08-20T15:30:47.981Z,2.70
2022-08-20T15:33:14.348Z,2.70
2022-08-20T15:35:40.824Z,2.75
2022-08-20T15:38:07.344Z,2.57
2022-08-20T15:40:33.703Z,3.05
2022-08-20T15:43:01.278Z,2.45
2022-08-20T15:45:27.929Z,2.00
2022-08-20T15:48:02.250Z,2.65
2022-08-20T15:50:37.480Z,2.20
2022-08-20T15:53:10.479Z,2.88
2022-08-20T15:55:39.148Z,2.63
2022-08-20T15:58:34.100Z,2.30
2022-08-20T16:01:24.628Z,2.73
2022-08-20T16:04:06.005Z,2.70
2022-08-20T16:06:32.991Z,3.13
2022-08-20T16:09:34.720Z,2.63
2022-08-20T16:12:36.043Z,2.80
2022-08-20T16:15:12.410Z,2.67
2022-08-20T16:18:21.880Z,2.17
2022-08-20T16:20:49.771Z,2.30
2022-08-20T16:23:20.211Z,2.30
2022-08-20T16:26:09.062Z,2.25
2022-08-20T16:29:00.510Z,2.07
2022-08-20T16:31:32.250Z,2.50
2022-08-20T16:34:04.764Z,2.25
2022-08-20T16:37:17.497Z,2.55
2022-08-20T16:40:08.821Z,2.13
2022-08-20T16:42:39.973Z,2.20
2022-08-20T16:45:09.637Z,2.23
2022-08-20T16:47:37.003Z,2.30
2022-08-20T16:50:11.564Z,2.08
2022-08-20T16:52:41.133Z,2.00
2022-08-20T16:55:07.789Z,2.70
2022-08-20T16:57:34.154Z,2.47
2022-08-20T17:00:10.698Z,2.20
2022-08-20T17:02:50.097Z,2.40
2022-08-20T17:05:16.916Z,2.03
2022-08-20T17:07:51.391Z,2.70
2022-08-20T17:10:34.267Z,2.03
2022-08-20T17:13:05.927Z,2.33
2022-08-20T17:15:34.443Z,2.23
2022-08-20T17:18:19.998Z,2.30
2022-08-20T17:20:46.537Z,2.42
2022-08-20T17:23:18.270Z,2.22
2022-08-20T17:25:46.572Z,2.38
2022-08-20T17:28:18.168Z,2.00
2022-08-20T17:30:45.671Z,2.10
2022-08-20T17:33:20.929Z,2.10
2022-08-20T17:36:20.533Z,2.00
2022-08-20T17:38:50.812Z,2.07
2022-08-20T17:41:23.981Z,2.50
2022-08-20T17:44:01.332Z,3.07
2022-08-20T17:46:30.211Z,2.57
2022-08-20T17:48:58.565Z,2.97
2022-08-20T17:51:27.988Z,2.70
2022-08-20T17:54:00.185Z,2.20
2022-08-20T17:56:29.156Z,2.43
2022-08-20T17:59:36.388Z,2.70
2022-08-20T18:02:05.439Z,2.93
2022-08-20T18:04:32.147Z,2.33
2022-08-20T18:07:04.624Z,2.73
2022-08-20T18:09:54.215Z,2.33
2022-08-20T18:12:35.155Z,2.47
2022-08-20T18:15:23.641Z,2.87
2022-08-20T18:18:12.852Z,2.50
2022-08-20T18:21:10.292Z,2.87
2022-08-20T18:23:40.984Z,2.70
2022-08-20T18:26:14.203Z,2.43
2022-08-20T18:28:46.043Z,2.73
2022-08-20T18:31:32.341Z,2.80
2022-08-20T18:34:33.404Z,2.90
2022-08-20T18:37:03.645Z,3.23
2022-08-20T18:39:33.816Z,3.43
2022-08-20T18:42:10.727Z,3.30
2022-08-20T18:44:44.201Z,2.60
2022-08-20T18:47:32.903Z,3.23
2022-08-20T18:50:15.720Z,2.90
2022-08-20T18:52:50.195Z,3.10
2022-08-20T18:55:31.555Z,2.37
2022-08-20T18:58:04.681Z,2.40
2022-08-20T19:00:37.099Z,3.00
2022-08-20T19:03:06.193Z,2.97
2022-08-20T19:05:44.774Z,2.90
2022-08-20T19:08:21.143Z,3.00
2022-08-20T19:10:49.876Z,2.73
2022-08-20T19:14:00.837Z,2.73
2022-08-20T19:16:36.272Z,3.03
2022-08-20T19:19:03.145Z,2.73
2022-08-20T19:21:32.691Z,2.33
2022-08-20T19:24:02.745Z,2.80
2022-08-20T19:26:32.867Z,2.30
2022-08-20T19:29:06.994Z,2.90
2022-08-20T19:31:35.306Z,2.10
2022-08-20T19:34:25.666Z,2.90
2022-08-20T19:36:54.027Z,2.10
2022-08-20T19:39:25.624Z,2.37
2022-08-20T19:42:03.488Z,2.93
2022-08-20T19:44:41.361Z,2.33
2022-08-20T19:47:24.470Z,2.80
2022-08-20T19:50:04.661Z,2.70
2022-08-20T19:52:58.766Z,2.80
2022-08-20T19:55:30.753Z,3.13
2022-08-20T19:57:59.841Z,2.67
2022-08-20T20:00:28.431Z,3.07
2022-08-20T20:02:54.958Z,4.50
2022-08-20T20:05:22.521Z,2.93
2022-08-20T20:07:50.517Z,3.00
2022-08-20T20:10:36.552Z,3.07
2022-08-20T20:13:12.576Z,2.80
2022-08-20T20:15:39.819Z,3.03
2022-08-20T20:18:06.952Z,3.50
2022-08-20T20:20:36.497Z,3.13
2022-08-20T20:23:13.017Z,3.33
2022-08-20T20:25:45.910Z,3.20
2022-08-20T20:28:24.303Z,3.50
2022-08-20T20:30:50.969Z,3.30
2022-08-20T20:33:31.804Z,3.53
2022-08-20T20:36:03.099Z,3.37
2022-08-20T20:38:29.436Z,3.70
2022-08-20T20:40:57.616Z,3.93
2022-08-20T20:43:26.153Z,3.03
2022-08-20T20:46:06.504Z,4.13
2022-08-20T20:48:48.238Z,3.20
2022-08-20T20:51:31.566Z,4.30
2022-08-20T20:54:02.979Z,3.47
2022-08-20T20:56:36.420Z,3.30
2022-08-20T20:59:06.891Z,4.03
2022-08-20T21:01:48.811Z,3.60
2022-08-20T21:04:22.195Z,3.63
2022-08-20T21:06:49.459Z,3.53
2022-08-20T21:09:16.604Z,3.17
2022-08-20T21:11:43.021Z,3.33
2022-08-20T21:14:09.434Z,3.33
2022-08-20T21:16:35.955Z,3.50
2022-08-20T21:19:05.312Z,3.10
2022-08-20T21:21:32.144Z,3.77
2022-08-20T21:23:58.988Z,3.40
2022-08-20T21:26:25.971Z,3.63
2022-08-20T21:28:52.402Z,4.00
2022-08-20T21:31:18.933Z,3.33
2022-08-20T21:33:45.321Z,2.70
2022-08-20T21:36:11.730Z,4.10
2022-08-20T21:38:38.067Z,3.10
2022-08-20T21:41:04.609Z,3.40
2022-08-20T21:43:32.848Z,3.30
2022-08-20T21:46:01.278Z,3.30
2022-08-20T21:48:28.920Z,4.27
2022-08-20T21:50:55.325Z,3.27
2022-08-20T21:53:21.612Z,3.13
2022-08-20T21:55:48.018Z,3.17
2022-08-20T21:58:15.809Z,3.00
2022-08-20T22:00:47.665Z,3.50
2022-08-20T22:03:15.801Z,2.43
2022-08-20T22:05:42.501Z,2.90
2022-08-20T22:08:10.080Z,2.70
2022-08-20T22:10:36.790Z,2.63
2022-08-20T22:13:03.505Z,2.30
2022-08-20T22:15:29.957Z,2.40
2022-08-20T22:17:56.309Z,2.80
2022-08-20T22:20:24.879Z,2.70
2022-08-20T22:22:51.338Z,2.40
2022-08-20T22:25:17.923Z,2.90
2022-08-20T22:27:44.317Z,3.13
2022-08-20T22:30:11.066Z,2.50
2022-08-20T22:32:51.938Z,2.53
2022-08-20T22:35:19.178Z,2.37
2022-08-20T22:37:45.769Z,2.70
2022-08-20T22:40:12.403Z,2.73
2022-08-20T22:42:38.812Z,2.33
2022-08-20T22:45:05.717Z,2.70
2022-08-20T22:47:41.179Z,2.50
2022-08-20T22:50:08.629Z,2.90
2022-08-20T22:52:38.250Z,3.23
2022-08-20T22:55:06.017Z,3.10
2022-08-20T22:57:34.283Z,2.73
2022-08-20T23:00:00.816Z,3.03
2022-08-20T23:02:27.123Z,3.13
2022-08-20T23:04:53.472Z,2.33
2022-08-20T23:07:20.024Z,2.93
2022-08-20T23:09:46.409Z,3.30
2022-08-20T23:12:12.861Z,4.03
2022-08-20T23:14:39.231Z,3.53
2022-08-20T23:17:17.321Z,3.30
2022-08-20T23:19:45.301Z,3.40
2022-08-20T23:22:11.992Z,3.20
2022-08-20T23:24:38.330Z,3.90
2022-08-20T23:27:05.451Z,3.83
2022-08-20T23:29:32.328Z,3.10
2022-08-20T23:31:58.877Z,2.73
2022-08-20T23:34:26.243Z,3.30
2022-08-20T23:36:55.513Z,2.93
2022-08-20T23:39:21.895Z,3.23
2022-08-20T23:41:48.335Z,3.97
2022-08-20T23:44:26.025Z,3.63
2022-08-20T23:46:59.083Z,3.60
2022-08-20T23:49:27.083Z,3.10
2022-08-20T23:51:53.735Z,3.33
2022-08-20T23:54:20.053Z,3.63
2022-08-20T23:56:46.397Z,3.20
2022-08-20T23:59:12.692Z,4.23
